createdAt,value
2022-12-08T00:01:18.581Z,86.35
2022-12-08T00:03:45.427Z,86.29
2022-12-08T00:06:45.844Z,86.24
2022-12-08T00:09:24.621Z,85.87
2022-12-08T00:11:56.941Z,86.19
2022-12-08T00:14:37.747Z,85.90
2022-12-08T00:17:06.406Z,86.54
2022-12-08T00:19:33.500Z,86.46
2022-12-08T00:22:00.437Z,86.13
2022-12-08T00:24:31.794Z,86.06
2022-12-08T00:26:58.602Z,86.75
2022-12-08T00:29:25.310Z,86.73
2022-12-08T00:31:52.057Z,86.70
2022-12-08T00:34:18.927Z,86.91
2022-12-08T00:36:45.890Z,86.56
2022-12-08T00:39:13.503Z,86.75
2022-12-08T00:41:58.899Z,86.39
2022-12-08T00:44:25.644Z,86.74
2022-12-08T00:46:52.355Z,86.73
2022-12-08T00:49:19.237Z,86.80
2022-12-08T00:51:46.395Z,86.74
2022-12-08T00:54:13.245Z,86.70
2022-12-08T00:56:39.965Z,86.67
2022-12-08T00:59:07.489Z,87.16
2022-12-08T01:01:35.601Z,87.35
2022-12-08T01:04:04.494Z,86.81
2022-12-08T01:06:31.479Z,86.89
2022-12-08T01:08:58.294Z,87.32
2022-12-08T01:11:25.013Z,86.78
2022-12-08T01:13:51.848Z,86.49
2022-12-08T01:16:23.316Z,85.90
2022-12-08T01:18:50.078Z,86.14
2022-12-08T01:21:17.497Z,86.33
2022-12-08T01:23:44.462Z,86.08
2022-12-08T01:26:12.984Z,86.22
2022-12-08T01:28:40.516Z,86.39
2022-12-08T01:31:12.476Z,86.25
2022-12-08T01:33:39.898Z,86.79
2022-12-08T01:36:07.546Z,86.78
2022-12-08T01:38:34.281Z,86.32
2022-12-08T01:41:01.085Z,86.34
2022-12-08T01:43:49.444Z,86.24
2022-12-08T01:46:16.183Z,86.56
2022-12-08T01:48:43.090Z,86.54
2022-12-08T01:51:10.122Z,86.75
2022-12-08T01:53:36.940Z,86.54
2022-12-08T01:56:08.079Z,86.21
2022-12-08T01:58:41.642Z,86.26
2022-12-08T02:01:08.783Z,86.21
2022-12-08T02:03:44.359Z,85.57
2022-12-08T02:06:11.758Z,86.15
2022-12-08T02:08:39.394Z,86.36
2022-12-08T02:11:09.443Z,85.60
2022-12-08T02:13:36.240Z,85.47
2022-12-08T02:16:21.490Z,85.12
2022-12-08T02:19:32.158Z,85.64
2022-12-08T02:22:07.189Z,85.83
2022-12-08T02:24:59.235Z,85.40
2022-12-08T02:27:55.081Z,85.84
2022-12-08T02:30:24.761Z,86.03
2022-12-08T02:33:08.815Z,86.17
2022-12-08T02:35:35.509Z,85.80
2022-12-08T02:38:08.094Z,85.59
2022-12-08T02:40:58.817Z,85.80
2022-12-08T02:44:06.729Z,85.34
2022-12-08T02:46:38.686Z,85.55
2022-12-08T02:49:06.229Z,85.73
2022-12-08T02:51:32.973Z,85.42
2022-12-08T02:54:00.725Z,85.41
2022-12-08T02:56:52.321Z,85.46
2022-12-08T02:59:46.130Z,85.66
2022-12-08T03:02:31.173Z,85.66
2022-12-08T03:05:07.937Z,85.64
2022-12-08T03:07:39.179Z,85.84
2022-12-08T03:10:11.177Z,85.53
2022-12-08T03:13:13.930Z,85.98
2022-12-08T03:15:41.860Z,85.64
2022-12-08T03:18:11.164Z,85.85
2022-12-08T03:20:38.812Z,86.27
2022-12-08T03:23:08.946Z,85.92
2022-12-08T03:25:39.389Z,86.14
2022-12-08T03:28:06.258Z,86.00
2022-12-08T03:30:37.269Z,86.43
2022-12-08T03:33:07.554Z,86.40
2022-12-08T03:35:35.909Z,86.49
2022-12-08T03:38:11.378Z,86.09
2022-12-08T03:40:38.344Z,86.51
2022-12-08T03:43:05.124Z,86.75
2022-12-08T03:45:34.288Z,86.93
2022-12-08T03:48:01.042Z,86.59
2022-12-08T03:50:27.781Z,86.34
2022-12-08T03:52:54.505Z,86.45
2022-12-08T03:55:21.536Z,86.36
2022-12-08T03:57:48.251Z,86.12
2022-12-08T04:00:16.024Z,86.21
2022-12-08T04:02:42.830Z,86.53
2022-12-08T04:05:09.632Z,87.24
2022-12-08T04:07:36.492Z,86.86
2022-12-08T04:10:04.284Z,86.79
2022-12-08T04:12:31.287Z,86.99
2022-12-08T04:17:24.811Z,86.78
2022-12-08T04:19:51.598Z,86.87
2022-12-08T04:22:18.467Z,87.49
2022-12-08T04:24:45.346Z,87.07
2022-12-08T04:27:12.066Z,87.83
2022-12-08T04:29:39.003Z,87.37
2022-12-08T04:32:05.735Z,87.19
2022-12-08T04:34:32.510Z,87.52
2022-12-08T04:36:59.196Z,87.10
2022-12-08T04:39:25.922Z,87.42
2022-12-08T04:41:52.823Z,87.67
2022-12-08T04:44:19.547Z,87.33
2022-12-08T04:46:46.368Z,87.53
2022-12-08T04:49:13.227Z,87.34
2022-12-08T04:51:40.015Z,87.63
2022-12-08T04:54:06.741Z,87.80
2022-12-08T04:56:33.483Z,87.75
2022-12-08T04:59:00.207Z,87.63
2022-12-08T05:01:26.972Z,87.09
2022-12-08T05:03:53.902Z,87.90
2022-12-08T05:06:20.684Z,88.02
2022-12-08T05:08:47.403Z,87.72
2022-12-08T05:11:14.565Z,87.04
2022-12-08T05:13:41.451Z,86.45
2022-12-08T05:16:10.603Z,87.40
2022-12-08T05:18:38.159Z,87.69
2022-12-08T05:21:05.885Z,87.57
2022-12-08T05:23:35.700Z,87.74
2022-12-08T05:26:02.603Z,87.97
2022-12-08T05:28:44.824Z,88.10
2022-12-08T05:31:13.356Z,88.48
2022-12-08T05:33:40.100Z,87.80
2022-12-08T05:36:07.800Z,88.11
2022-12-08T05:38:34.521Z,88.37
2022-12-08T05:41:01.245Z,88.07
2022-12-08T05:43:27.976Z,88.09
2022-12-08T05:45:54.837Z,88.19
2022-12-08T05:48:21.580Z,88.54
2022-12-08T05:50:48.933Z,88.72
2022-12-08T05:53:16.694Z,88.57
2022-12-08T05:55:43.737Z,88.32
2022-12-08T05:58:14.134Z,88.29
2022-12-08T06:00:41.432Z,88.06
2022-12-08T06:03:08.783Z,88.09
2022-12-08T06:05:36.106Z,88.25
2022-12-08T06:08:02.931Z,88.71
2022-12-08T06:10:29.897Z,88.48
2022-12-08T06:12:56.873Z,88.88
2022-12-08T06:15:23.593Z,89.26
2022-12-08T06:17:50.332Z,89.19
2022-12-08T06:20:17.125Z,89.00
2022-12-08T06:22:43.904Z,88.48
2022-12-08T06:25:10.684Z,89.06
2022-12-08T06:27:37.391Z,88.70
2022-12-08T06:30:05.170Z,88.91
2022-12-08T06:32:32.076Z,88.55
2022-12-08T06:34:58.792Z,89.02
2022-12-08T06:37:25.472Z,88.86
2022-12-08T06:39:52.182Z,88.83
2022-12-08T06:42:37.608Z,88.96
2022-12-08T06:45:04.705Z,88.89
2022-12-08T06:47:31.460Z,89.27
2022-12-08T06:49:58.657Z,89.46
2022-12-08T06:52:25.332Z,89.41
2022-12-08T06:54:52.176Z,89.08
2022-12-08T06:57:18.921Z,89.51
2022-12-08T06:59:45.545Z,88.95
2022-12-08T07:02:12.323Z,89.32
2022-12-08T07:04:39.277Z,89.33
2022-12-08T07:07:06.072Z,89.86
2022-12-08T07:09:32.771Z,89.72
2022-12-08T07:11:59.452Z,89.90
2022-12-08T07:14:26.209Z,89.08
2022-12-08T07:16:52.870Z,89.47
2022-12-08T07:19:19.594Z,89.09
2022-12-08T07:21:46.405Z,89.51
2022-12-08T07:24:13.419Z,88.97
2022-12-08T07:26:40.945Z,89.08
2022-12-08T07:29:07.823Z,89.33
2022-12-08T07:31:34.576Z,89.32
2022-12-08T07:34:01.317Z,89.26
2022-12-08T07:36:28.124Z,89.36
2022-12-08T07:38:54.847Z,89.43
2022-12-08T07:41:23.897Z,89.60
2022-12-08T07:43:51.046Z,89.13
2022-12-08T07:46:20.733Z,88.97
2022-12-08T07:48:47.768Z,89.30
2022-12-08T07:51:15.488Z,89.38
2022-12-08T07:53:47.200Z,89.69
2022-12-08T07:56:16.681Z,89.59
2022-12-08T07:58:45.760Z,89.87
2022-12-08T08:01:26.920Z,89.84
2022-12-08T08:03:55.423Z,89.84
2022-12-08T08:06:22.678Z,90.23
2022-12-08T08:08:49.449Z,90.43
2022-12-08T08:11:20.939Z,90.55
2022-12-08T08:13:49.673Z,90.29
2022-12-08T08:16:16.874Z,90.65
2022-12-08T08:18:43.644Z,90.94
2022-12-08T08:23:57.256Z,90.84
2022-12-08T08:26:24.001Z,90.44
2022-12-08T08:28:50.650Z,90.71
2022-12-08T08:31:17.377Z,90.86
2022-12-08T08:33:44.051Z,90.60
2022-12-08T08:36:11.457Z,90.14
2022-12-08T08:38:42.761Z,89.47
2022-12-08T08:41:10.545Z,89.56
2022-12-08T08:43:38.641Z,89.57
2022-12-08T08:46:06.491Z,90.06
2022-12-08T08:48:33.615Z,90.01
2022-12-08T08:51:07.759Z,90.44
2022-12-08T08:53:34.511Z,90.05
2022-12-08T08:56:02.943Z,90.00
2022-12-08T08:58:29.830Z,89.92
2022-12-08T09:00:56.549Z,90.04
2022-12-08T09:03:23.256Z,90.06
2022-12-08T09:05:50.448Z,90.58
2022-12-08T09:08:17.488Z,90.10
2022-12-08T09:10:44.360Z,90.30
2022-12-08T09:13:11.018Z,90.62
2022-12-08T09:15:37.765Z,90.44
2022-12-08T09:18:06.722Z,90.50
2022-12-08T09:20:34.804Z,90.37
2022-12-08T09:23:01.434Z,90.31
2022-12-08T09:25:28.868Z,90.41
2022-12-08T09:27:55.491Z,90.30
2022-12-08T09:30:22.234Z,90.11
2022-12-08T09:32:49.109Z,90.26
2022-12-08T09:35:15.778Z,90.28
2022-12-08T09:37:42.489Z,90.01
2022-12-08T09:40:11.947Z,90.33
2022-12-08T09:42:42.323Z,90.06
2022-12-08T09:45:13.210Z,90.17
2022-12-08T09:47:42.944Z,89.89
2022-12-08T09:50:18.200Z,89.69
2022-12-08T09:52:49.958Z,89.77
2022-12-08T09:55:29.627Z,90.33
2022-12-08T09:58:02.193Z,89.76
2022-12-08T10:00:28.976Z,90.38
2022-12-08T10:02:57.428Z,89.89
2022-12-08T10:05:25.746Z,89.86
2022-12-08T10:08:19.987Z,90.01
2022-12-08T10:11:00.155Z,90.16
2022-12-08T10:13:56.530Z,90.07
2022-12-08T10:16:30.367Z,89.69
2022-12-08T10:19:18.441Z,90.08
2022-12-08T10:21:45.518Z,89.38
2022-12-08T10:24:34.780Z,89.71
2022-12-08T10:27:01.833Z,89.63
2022-12-08T10:29:28.500Z,89.52
2022-12-08T10:31:57.517Z,89.28
2022-12-08T10:34:24.914Z,89.42
2022-12-08T10:36:54.273Z,89.10
2022-12-08T10:39:43.713Z,88.71
2022-12-08T10:42:19.131Z,88.52
2022-12-08T10:44:57.934Z,88.36
2022-12-08T10:47:26.545Z,88.52
2022-12-08T10:50:10.759Z,88.06
2022-12-08T10:52:40.980Z,88.00
2022-12-08T10:55:18.748Z,87.89
2022-12-08T10:57:45.835Z,88.03
2022-12-08T11:00:14.836Z,87.60
2022-12-08T11:03:02.467Z,87.10
2022-12-08T11:05:33.119Z,87.49
2022-12-08T11:08:00.017Z,87.46
2022-12-08T11:10:42.850Z,87.04
2022-12-08T11:13:26.112Z,86.86
2022-12-08T11:15:54.902Z,86.89
2022-12-08T11:18:41.049Z,86.46
2022-12-08T11:21:12.942Z,86.68
2022-12-08T11:23:41.908Z,86.21
2022-12-08T11:26:27.653Z,85.40
2022-12-08T11:28:54.872Z,85.63
2022-12-08T11:31:32.311Z,85.36
2022-12-08T11:33:59.062Z,85.43
2022-12-08T11:36:27.386Z,85.69
2022-12-08T11:38:57.402Z,85.27
2022-12-08T11:41:27.451Z,85.41
2022-12-08T11:44:31.200Z,84.47
2022-12-08T11:47:39.898Z,84.38
2022-12-08T11:50:21.130Z,83.42
2022-12-08T11:52:50.314Z,83.89
2022-12-08T11:55:36.945Z,83.02
2022-12-08T11:58:18.863Z,82.67
2022-12-08T12:00:45.719Z,84.12
2022-12-08T12:03:18.806Z,83.85
2022-12-08T12:06:13.642Z,83.26
2022-12-08T12:09:19.644Z,83.45
2022-12-08T12:12:16.550Z,83.65
2022-12-08T12:15:12.629Z,83.14
2022-12-08T12:17:53.069Z,83.57
2022-12-08T12:20:23.990Z,83.34
2022-12-08T12:23:02.528Z,83.60
2022-12-08T12:25:29.348Z,83.91
2022-12-08T12:28:00.303Z,84.00
2022-12-08T12:30:29.124Z,84.27
2022-12-08T12:33:00.759Z,84.39
2022-12-08T12:35:41.941Z,84.24
2022-12-08T12:38:45.773Z,84.12
2022-12-08T12:41:12.717Z,84.21
2022-12-08T12:43:39.616Z,84.69
2022-12-08T12:46:27.669Z,83.22
2022-12-08T12:49:33.242Z,82.85
2022-12-08T12:52:00.088Z,83.70
2022-12-08T12:54:28.094Z,83.60
2022-12-08T12:56:57.135Z,83.86
2022-12-08T12:59:43.422Z,83.35
2022-12-08T13:02:26.167Z,83.34
2022-12-08T13:05:26.401Z,82.85
2022-12-08T13:07:56.260Z,83.25
2022-12-08T13:10:31.377Z,83.23
2022-12-08T13:13:10.545Z,83.17
2022-12-08T13:15:38.916Z,83.60
2022-12-08T13:18:24.385Z,83.35
2022-12-08T13:21:20.144Z,82.59
2022-12-08T13:23:50.083Z,83.34
2022-12-08T13:26:25.380Z,83.09
2022-12-08T13:29:04.171Z,82.54
2022-12-08T13:31:45.061Z,82.55
2022-12-08T13:34:55.077Z,82.33
2022-12-08T13:37:54.309Z,82.49
2022-12-08T13:40:25.684Z,82.79
2022-12-08T13:43:15.280Z,83.03
2022-12-08T13:49:36.547Z,83.56
2022-12-08T13:57:11.556Z,83.20
2022-12-08T13:59:44.273Z,83.13
2022-12-08T14:02:18.985Z,83.26
2022-12-08T14:05:17.028Z,83.46
2022-12-08T14:07:34.037Z,83.26
2022-12-08T14:10:03.653Z,82.96
2022-12-08T14:12:30.886Z,82.98
2022-12-08T14:15:03.670Z,82.94
2022-12-08T14:17:30.964Z,83.26
2022-12-08T14:20:19.145Z,83.14
2022-12-08T14:22:46.611Z,82.69
2022-12-08T14:25:15.274Z,82.70
2022-12-08T14:27:42.232Z,82.75
2022-12-08T14:30:25.348Z,82.67
2022-12-08T14:32:58.335Z,83.13
2022-12-08T14:35:28.177Z,83.16
2022-12-08T14:37:58.520Z,83.11
2022-12-08T14:40:34.885Z,83.21
2022-12-08T14:43:07.636Z,83.59
2022-12-08T14:45:40.317Z,83.85
2022-12-08T14:48:31.514Z,83.71
2022-12-08T14:51:16.225Z,83.85
2022-12-08T14:53:55.807Z,83.43
2022-12-08T14:56:23.455Z,83.53
2022-12-08T14:59:01.907Z,82.92
2022-12-08T15:01:29.208Z,82.87
2022-12-08T15:04:07.714Z,82.43
2022-12-08T15:06:34.776Z,82.95
2022-12-08T15:09:15.872Z,82.56
2022-12-08T15:11:42.629Z,83.00
2022-12-08T15:14:27.408Z,82.45
2022-12-08T15:16:55.295Z,83.03
2022-12-08T15:19:24.243Z,82.64
2022-12-08T15:21:51.154Z,82.51
2022-12-08T15:24:18.651Z,82.59
2022-12-08T15:26:47.896Z,82.55
2022-12-08T15:29:19.720Z,82.59
2022-12-08T15:31:46.570Z,82.58
2022-12-08T15:34:13.503Z,82.76
2022-12-08T15:36:42.962Z,82.83
2022-12-08T15:39:31.469Z,82.45
2022-12-08T15:41:58.853Z,83.01
2022-12-08T15:44:25.924Z,82.85
2022-12-08T15:46:53.013Z,83.42
2022-12-08T15:49:22.510Z,83.92
2022-12-08T15:51:50.054Z,84.09
2022-12-08T15:54:17.002Z,83.82
2022-12-08T15:57:18.026Z,83.81
2022-12-08T15:59:36.980Z,84.53
2022-12-08T16:02:03.833Z,84.79
2022-12-08T16:05:18.403Z,84.58
2022-12-08T16:07:24.406Z,84.80
2022-12-08T16:09:51.878Z,85.29
2022-12-08T16:18:23.794Z,85.70
2022-12-08T16:21:13.294Z,88.64
2022-12-08T16:23:45.432Z,86.40
2022-12-08T16:29:06.661Z,86.14
2022-12-08T16:31:34.458Z,86.07
2022-12-08T16:34:01.277Z,86.07
2022-12-08T16:36:28.008Z,85.62
2022-12-08T16:38:54.713Z,85.58
2022-12-08T16:41:40.258Z,85.80
2022-12-08T16:44:07.052Z,85.19
2022-12-08T16:46:34.735Z,85.36
2022-12-08T16:49:01.867Z,86.06
2022-12-08T16:51:28.626Z,85.73
2022-12-08T16:53:56.820Z,86.20
2022-12-08T16:56:29.002Z,86.28
2022-12-08T16:59:01.184Z,86.59
2022-12-08T17:01:28.191Z,86.73
2022-12-08T17:06:41.839Z,86.75
2022-12-08T17:09:08.728Z,86.78
2022-12-08T17:11:42.306Z,86.44
2022-12-08T17:14:09.899Z,86.14
2022-12-08T17:16:36.777Z,85.97
2022-12-08T17:19:03.639Z,85.99
2022-12-08T17:21:30.347Z,85.81
2022-12-08T17:23:57.088Z,85.90
2022-12-08T17:26:23.954Z,86.03
2022-12-08T17:29:00.496Z,85.78
2022-12-08T17:31:29.882Z,86.03
2022-12-08T17:34:02.639Z,86.04
2022-12-08T17:36:29.643Z,86.00
2022-12-08T17:38:57.202Z,86.14
2022-12-08T17:41:23.999Z,86.43
2022-12-08T17:43:50.782Z,86.66
2022-12-08T17:50:17.961Z,86.68
2022-12-08T17:52:44.978Z,85.61
2022-12-08T17:55:12.476Z,85.67
2022-12-08T17:57:39.424Z,85.96
2022-12-08T18:00:07.213Z,86.29
2022-12-08T18:02:38.832Z,86.70
2022-12-08T18:05:06.480Z,86.84
2022-12-08T18:10:14.183Z,87.16
2022-12-08T18:12:40.965Z,87.66
2022-12-08T18:15:11.243Z,87.50
2022-12-08T18:17:37.909Z,86.99
2022-12-08T18:20:05.955Z,86.75
2022-12-08T18:22:32.887Z,87.08
2022-12-08T18:24:59.675Z,87.04
2022-12-08T18:27:26.373Z,86.37
2022-12-08T18:29:53.126Z,86.52
2022-12-08T18:32:23.441Z,86.44
2022-12-08T18:34:50.696Z,86.60
2022-12-08T18:37:17.453Z,86.18
2022-12-08T18:39:44.233Z,86.68
2022-12-08T18:42:23.232Z,86.27
2022-12-08T18:45:04.181Z,86.48
2022-12-08T18:47:36.318Z,87.27
2022-12-08T18:50:04.842Z,87.43
2022-12-08T18:52:32.581Z,87.62
2022-12-08T18:55:07.790Z,87.45
2022-12-08T18:57:38.233Z,87.56
2022-12-08T19:00:07.124Z,87.45
2022-12-08T19:02:34.229Z,87.81
2022-12-08T19:05:01.359Z,87.15
2022-12-08T19:07:28.208Z,87.32
2022-12-08T19:09:56.145Z,87.26
2022-12-08T19:12:22.924Z,86.71
2022-12-08T19:14:49.808Z,86.67
2022-12-08T19:17:16.673Z,86.95
2022-12-08T19:19:43.457Z,87.00
2022-12-08T19:22:10.265Z,87.37
2022-12-08T19:24:37.033Z,87.34
2022-12-08T19:27:05.235Z,87.86
2022-12-08T19:29:32.090Z,87.88
2022-12-08T19:32:00.189Z,87.31
2022-12-08T19:34:27.182Z,87.07
2022-12-08T19:36:53.921Z,87.74
2022-12-08T19:39:41.300Z,87.85
2022-12-08T19:42:37.400Z,87.02
2022-12-08T19:45:30.028Z,86.88
2022-12-08T19:47:56.940Z,87.54
2022-12-08T19:50:39.670Z,86.92
2022-12-08T19:53:14.744Z,87.20
2022-12-08T19:55:43.424Z,87.27
2022-12-08T19:58:10.619Z,87.25
2022-12-08T20:00:38.765Z,87.31
2022-12-08T20:03:06.092Z,86.73
2022-12-08T20:05:34.793Z,86.10
2022-12-08T20:08:01.533Z,85.98
2022-12-08T20:10:33.490Z,85.64
2022-12-08T20:13:19.261Z,85.54
2022-12-08T20:15:46.606Z,85.76
2022-12-08T20:18:14.473Z,85.64
2022-12-08T20:20:42.067Z,86.09
2022-12-08T20:23:08.867Z,86.64
2022-12-08T20:25:39.098Z,87.22
2022-12-08T20:28:06.144Z,87.10
2022-12-08T20:30:32.878Z,87.02
2022-12-08T20:32:59.619Z,87.07
2022-12-08T20:35:26.529Z,87.41
2022-12-08T20:37:53.329Z,87.51
2022-12-08T20:40:20.706Z,87.13
2022-12-08T20:42:47.593Z,86.92
2022-12-08T20:45:17.353Z,86.21
2022-12-08T20:47:44.095Z,86.38
2022-12-08T20:50:11.467Z,86.54
2022-12-08T20:52:38.600Z,87.02
2022-12-08T20:55:06.967Z,87.21
2022-12-08T20:57:33.845Z,87.29
2022-12-08T21:00:00.741Z,87.54
2022-12-08T21:02:28.015Z,87.51
2022-12-08T21:08:51.866Z,87.82
2022-12-08T21:11:18.949Z,88.01
2022-12-08T21:13:46.819Z,87.28
2022-12-08T21:16:15.101Z,87.11
2022-12-08T21:18:42.553Z,87.70
2022-12-08T21:21:11.618Z,87.90
2022-12-08T21:23:38.979Z,87.40
2022-12-08T21:26:14.071Z,86.67
2022-12-08T21:28:41.052Z,86.49
2022-12-08T21:31:16.467Z,86.32
2022-12-08T21:33:43.754Z,86.44
2022-12-08T21:36:19.100Z,86.80
2022-12-08T21:38:46.904Z,86.98
2022-12-08T21:41:38.743Z,86.93
2022-12-08T21:44:06.619Z,87.14
2022-12-08T21:46:33.592Z,86.95
2022-12-08T21:49:00.622Z,86.85
2022-12-08T21:51:27.746Z,87.24
2022-12-08T21:53:54.833Z,86.99
2022-12-08T21:56:22.006Z,86.50
2022-12-08T21:58:49.486Z,86.55
2022-12-08T22:01:16.555Z,86.35
2022-12-08T22:03:43.641Z,86.55
2022-12-08T22:06:12.319Z,86.80
2022-12-08T22:08:39.915Z,86.70
2022-12-08T22:11:08.073Z,86.44
2022-12-08T22:13:36.631Z,86.93
2022-12-08T22:16:06.170Z,86.98
2022-12-08T22:18:34.284Z,87.08
2022-12-08T22:21:01.283Z,87.35
2022-12-08T22:23:28.763Z,87.25
2022-12-08T22:25:59.654Z,86.87
2022-12-08T22:28:27.124Z,87.28
2022-12-08T22:30:53.907Z,87.53
2022-12-08T22:33:20.698Z,87.75
2022-12-08T22:36:04.934Z,88.22
2022-12-08T22:38:36.870Z,88.07
2022-12-08T22:41:05.057Z,87.97
2022-12-08T22:43:32.022Z,88.28
2022-12-08T22:45:58.811Z,88.31
2022-12-08T22:48:25.622Z,88.41
2022-12-08T22:50:59.152Z,88.13
2022-12-08T22:53:25.912Z,87.90
2022-12-08T22:55:52.910Z,87.76
2022-12-08T22:58:19.959Z,87.81
2022-12-08T23:00:47.453Z,87.24
2022-12-08T23:03:14.467Z,87.00
2022-12-08T23:05:41.310Z,86.73
2022-12-08T23:08:08.889Z,87.11
2022-12-08T23:10:36.270Z,87.45
2022-12-08T23:13:04.161Z,87.66
2022-12-08T23:15:31.664Z,87.59
2022-12-08T23:17:58.671Z,87.39
2022-12-08T23:20:25.741Z,87.40
2022-12-08T23:22:52.588Z,87.63
2022-12-08T23:25:19.489Z,87.80
2022-12-08T23:27:46.551Z,88.13
2022-12-08T23:30:13.988Z,88.14
2022-12-08T23:32:41.024Z,87.96
2022-12-08T23:35:08.538Z,88.33
2022-12-08T23:37:35.308Z,88.46
2022-12-08T23:40:02.091Z,88.59
2022-12-08T23:42:30.104Z,88.31
2022-12-08T23:44:57.554Z,88.13
2022-12-08T23:47:24.412Z,88.28
2022-12-08T23:49:51.191Z,87.89
2022-12-08T23:52:18.193Z,88.13
2022-12-08T23:54:45.022Z,88.22
2022-12-08T23:57:11.781Z,87.82
2022-12-08T23:59:38.713Z,87.90
